createdAt,value
2018-01-18T00:02:42.938Z,3.77
2018-01-18T00:07:44.258Z,6.00
2018-01-18T00:12:45.571Z,4.30
2018-01-18T00:17:47.678Z,4.57
2018-01-18T00:22:48.991Z,4.17
2018-01-18T00:27:50.306Z,4.40
2018-01-18T00:32:51.606Z,4.40
2018-01-18T00:37:52.932Z,3.93
2018-01-18T00:42:54.235Z,3.50
2018-01-18T00:47:56.340Z,3.90
2018-01-18T00:52:58.381Z,4.40
2018-01-18T00:57:59.709Z,5.70
2018-01-18T01:03:01.038Z,5.03
2018-01-18T01:08:02.367Z,6.37
2018-01-18T01:13:03.675Z,6.53
2018-01-18T01:18:05.033Z,6.90
2018-01-18T01:23:06.347Z,7.50
2018-01-18T01:28:07.655Z,6.57
2018-01-18T01:33:09.017Z,7.50
2018-01-18T01:38:10.383Z,8.90
2018-01-18T01:43:11.747Z,6.87
2018-01-18T01:48:13.858Z,9.77
2018-01-18T01:53:15.928Z,8.40
2018-01-18T01:58:17.250Z,8.90
2018-01-18T02:03:19.322Z,9.57
2018-01-18T02:08:20.658Z,7.83
2018-01-18T02:13:21.980Z,7.20
2018-01-18T02:18:23.300Z,7.50
2018-01-18T02:23:24.623Z,7.30
2018-01-18T02:28:25.928Z,7.10
2018-01-18T02:33:27.245Z,7.10
2018-01-18T02:38:28.554Z,6.57
2018-01-18T02:43:29.855Z,6.60
2018-01-18T02:48:31.268Z,5.73
2018-01-18T02:53:32.612Z,6.30
2018-01-18T02:58:33.939Z,5.87
2018-01-18T03:03:36.008Z,5.37
2018-01-18T03:08:37.352Z,5.13
2018-01-18T03:13:38.713Z,7.43
2018-01-18T03:18:40.765Z,5.33
2018-01-18T03:23:42.080Z,5.80
2018-01-18T03:28:43.427Z,5.13
2018-01-18T03:33:44.784Z,4.40
2018-01-18T03:38:46.122Z,4.00
2018-01-18T03:43:47.462Z,4.10
2018-01-18T03:48:48.816Z,3.37
2018-01-18T03:53:50.171Z,3.33
2018-01-18T03:58:51.492Z,2.90
2018-01-18T04:03:52.863Z,3.60
2018-01-18T04:08:54.216Z,3.50
2018-01-18T04:13:56.263Z,4.30
2018-01-18T04:18:57.578Z,4.07
2018-01-18T04:23:58.881Z,3.20
2018-01-18T04:29:00.203Z,2.93
2018-01-18T04:34:02.257Z,4.27
2018-01-18T04:39:03.631Z,3.80
2018-01-18T04:44:04.924Z,3.73
2018-01-18T04:49:06.226Z,4.20
2018-01-18T04:54:07.554Z,4.80
2018-01-18T04:59:09.622Z,4.93
2018-01-18T05:04:10.974Z,3.63
2018-01-18T05:09:12.317Z,4.20
2018-01-18T05:14:13.696Z,4.40
2018-01-18T05:19:16.005Z,4.13
2018-01-18T05:24:17.380Z,4.07
2018-01-18T05:29:18.708Z,3.33
2018-01-18T05:34:20.046Z,3.17
2018-01-18T05:39:21.376Z,3.20
2018-01-18T05:44:22.697Z,3.10
2018-01-18T05:49:24.762Z,2.73
2018-01-18T05:54:26.073Z,2.70
2018-01-18T05:59:27.379Z,2.47
2018-01-18T06:04:29.490Z,2.10
2018-01-18T06:09:31.578Z,1.90
2018-01-18T06:14:32.886Z,2.50
2018-01-18T06:19:34.974Z,2.40
2018-01-18T06:24:37.020Z,2.77
2018-01-18T06:29:38.343Z,2.40
2018-01-18T06:34:39.687Z,2.57
2018-01-18T06:39:41.087Z,1.87
2018-01-18T06:44:42.418Z,1.73
2018-01-18T06:49:43.879Z,1.80
2018-01-18T06:54:45.215Z,1.37
2018-01-18T06:59:46.597Z,0.70
2018-01-18T07:04:47.923Z,0.90
2018-01-18T07:09:50.043Z,0.83
2018-01-18T07:14:51.365Z,0.67
2018-01-18T07:19:52.759Z,0.70
2018-01-18T07:24:54.319Z,0.60
2018-01-18T07:29:55.695Z,0.63
2018-01-18T07:34:57.752Z,0.67
2018-01-18T07:39:59.087Z,0.50
2018-01-18T07:45:01.140Z,0.70
2018-01-18T07:50:02.467Z,0.60
2018-01-18T07:55:04.531Z,0.70
2018-01-18T08:00:06.089Z,0.60
2018-01-18T08:05:07.490Z,1.00
2018-01-18T08:10:08.815Z,1.10
2018-01-18T08:15:10.208Z,0.83
2018-01-18T08:20:11.591Z,1.13
2018-01-18T08:25:12.943Z,1.00
2018-01-18T08:30:14.293Z,0.90
2018-01-18T08:35:15.859Z,0.80
2018-01-18T08:40:17.182Z,1.20
2018-01-18T08:45:18.630Z,0.93
2018-01-18T08:50:20.395Z,1.00
2018-01-18T08:55:22.999Z,1.00
2018-01-18T09:00:24.379Z,1.27
2018-01-18T09:05:26.197Z,1.00
2018-01-18T09:10:28.301Z,1.00
2018-01-18T09:15:30.263Z,1.33
2018-01-18T09:20:32.219Z,0.87
2018-01-18T09:25:34.491Z,1.10
2018-01-18T09:30:35.843Z,4.07
2018-01-18T09:35:37.166Z,3.80
2018-01-18T09:40:38.543Z,0.80
2018-01-18T09:45:39.949Z,0.80
2018-01-18T09:50:41.308Z,1.10
2018-01-18T09:55:42.676Z,1.20
2018-01-18T10:00:44.011Z,1.00
2018-01-18T10:05:45.364Z,1.53
2018-01-18T10:10:46.750Z,1.37
2018-01-18T10:15:48.075Z,1.20
2018-01-18T10:20:49.426Z,2.00
2018-01-18T10:25:50.747Z,1.40
2018-01-18T10:30:52.073Z,2.03
2018-01-18T10:35:53.517Z,2.07
2018-01-18T10:40:54.868Z,1.77
2018-01-18T10:45:56.223Z,1.77
2018-01-18T10:50:57.552Z,1.40
2018-01-18T10:55:59.713Z,1.67
2018-01-18T11:01:01.040Z,1.70
2018-01-18T11:06:03.168Z,1.40
2018-01-18T11:11:04.514Z,1.47
2018-01-18T11:16:05.868Z,1.10
2018-01-18T11:21:07.191Z,1.10
2018-01-18T11:26:08.607Z,0.77
2018-01-18T11:31:10.715Z,1.10
2018-01-18T11:36:12.112Z,1.00
2018-01-18T11:41:14.257Z,1.60
2018-01-18T11:46:15.606Z,1.00
2018-01-18T11:51:18.131Z,0.93
2018-01-18T11:56:20.234Z,1.20
2018-01-18T12:01:21.572Z,1.00
2018-01-18T12:06:23.011Z,0.80
2018-01-18T12:11:25.070Z,1.53
2018-01-18T12:16:26.425Z,0.73
2018-01-18T12:21:28.508Z,0.67
2018-01-18T12:26:29.811Z,0.60
2018-01-18T12:31:31.875Z,0.50
2018-01-18T12:36:33.221Z,0.50
2018-01-18T12:41:35.306Z,0.60
2018-01-18T12:46:37.362Z,0.50
2018-01-18T12:51:38.689Z,0.40
2018-01-18T12:56:40.031Z,0.50
2018-01-18T13:01:41.360Z,0.60
2018-01-18T13:06:42.683Z,0.80
2018-01-18T13:11:44.753Z,0.77
2018-01-18T13:16:46.071Z,0.77
2018-01-18T13:21:48.879Z,0.90
2018-01-18T13:26:50.372Z,0.70
2018-01-18T13:31:52.347Z,0.70
2018-01-18T13:36:54.680Z,0.70
2018-01-18T13:41:56.536Z,0.70
2018-01-18T13:46:58.537Z,0.60
2018-01-18T13:52:00.538Z,0.83
2018-01-18T13:57:02.530Z,0.63
2018-01-18T14:02:04.711Z,0.90
2018-01-18T14:07:07.450Z,0.73
2018-01-18T14:12:09.164Z,0.80
2018-01-18T14:17:10.830Z,0.70
2018-01-18T14:22:12.676Z,0.70
2018-01-18T14:27:14.076Z,1.00
2018-01-18T14:32:15.478Z,0.70
2018-01-18T14:37:17.294Z,0.70
2018-01-18T14:42:20.199Z,0.60
2018-01-18T14:47:22.131Z,0.97
2018-01-18T14:52:23.480Z,0.87
2018-01-18T14:57:24.845Z,1.00
2018-01-18T15:02:26.182Z,0.80
2018-01-18T15:07:27.523Z,0.83
2018-01-18T15:12:29.610Z,0.70
2018-01-18T15:17:30.934Z,0.77
2018-01-18T15:22:32.255Z,0.90
2018-01-18T15:27:33.631Z,1.00
2018-01-18T15:32:34.972Z,1.10
2018-01-18T15:37:36.340Z,0.77
2018-01-18T15:42:37.708Z,0.97
2018-01-18T15:47:39.075Z,1.40
2018-01-18T15:52:40.413Z,0.67
2018-01-18T15:57:41.801Z,0.73
2018-01-18T16:02:43.131Z,0.90
2018-01-18T16:07:44.539Z,0.80
2018-01-18T16:12:45.864Z,0.90
2018-01-18T16:17:47.206Z,0.70
2018-01-18T16:22:49.310Z,0.73
2018-01-18T16:27:51.367Z,0.63
2018-01-18T16:32:52.966Z,1.00
2018-01-18T16:37:55.498Z,1.07
2018-01-18T16:42:57.275Z,0.70
2018-01-18T16:47:59.105Z,0.80
2018-01-18T16:53:00.863Z,1.10
2018-01-18T16:58:03.571Z,0.90
2018-01-18T17:03:05.604Z,1.27
2018-01-18T17:08:07.490Z,1.10
2018-01-18T17:13:09.436Z,0.90
2018-01-18T17:18:11.283Z,1.43
2018-01-18T17:23:13.172Z,13.90
2018-01-18T17:28:15.196Z,10.50
2018-01-18T17:33:17.052Z,9.20
2018-01-18T17:38:19.161Z,5.47
2018-01-18T17:43:21.075Z,1.50
2018-01-18T17:48:23.446Z,1.20
2018-01-18T17:53:25.211Z,1.50
2018-01-18T17:58:27.164Z,1.00
2018-01-18T18:03:29.635Z,1.77
2018-01-18T18:08:31.732Z,1.73
2018-01-18T18:13:33.592Z,1.37
2018-01-18T18:18:35.675Z,1.70
2018-01-18T18:23:38.556Z,1.60
2018-01-18T18:28:40.305Z,1.40
2018-01-18T18:33:42.616Z,1.23
2018-01-18T18:38:45.310Z,1.80
2018-01-18T18:43:48.429Z,1.90
2018-01-18T18:48:50.769Z,1.37
2018-01-18T18:53:53.505Z,1.60
2018-01-18T18:58:56.288Z,1.40
2018-01-18T19:03:58.116Z,1.40
2018-01-18T19:08:59.704Z,1.30
2018-01-18T19:14:01.189Z,1.50
2018-01-18T19:19:02.683Z,1.20
2018-01-18T19:24:04.313Z,1.83
2018-01-18T19:29:06.674Z,1.70
2018-01-18T19:34:08.465Z,1.83
2018-01-18T19:39:10.665Z,2.00
2018-01-18T19:44:13.183Z,1.70
2018-01-18T19:49:14.567Z,1.50
2018-01-18T19:54:15.930Z,1.50
2018-01-18T19:59:17.255Z,1.30
2018-01-18T20:04:18.583Z,1.50
2018-01-18T20:09:19.941Z,2.10
2018-01-18T20:14:21.999Z,1.67
2018-01-18T20:19:23.812Z,1.97
2018-01-18T20:24:25.146Z,1.70
2018-01-18T20:29:28.049Z,1.63
2018-01-18T20:34:29.400Z,1.77
2018-01-18T20:39:30.775Z,2.23
2018-01-18T20:44:32.161Z,1.67
2018-01-18T20:49:33.524Z,1.93
2018-01-18T20:54:35.617Z,2.53
2018-01-18T20:59:36.939Z,1.57
2018-01-18T21:04:38.281Z,3.43
2018-01-18T21:09:39.616Z,2.30
2018-01-18T21:14:41.723Z,2.30
2018-01-18T21:19:43.804Z,2.20
2018-01-18T21:24:45.168Z,2.17
2018-01-18T21:29:46.543Z,2.30
2018-01-18T21:34:47.892Z,2.30
2018-01-18T21:39:50.044Z,1.90
2018-01-18T21:44:51.383Z,2.57
2018-01-18T21:49:53.439Z,2.43
2018-01-18T21:54:54.810Z,2.40
2018-01-18T21:59:56.206Z,2.87
2018-01-18T22:04:57.567Z,2.20
2018-01-18T22:09:58.985Z,3.00
2018-01-18T22:15:00.409Z,3.07
2018-01-18T22:20:01.827Z,3.20
2018-01-18T22:25:03.258Z,3.33
2018-01-18T22:30:04.583Z,3.80
2018-01-18T22:35:05.892Z,3.50
2018-01-18T22:40:07.233Z,3.60
2018-01-18T22:45:08.579Z,4.57
2018-01-18T22:50:10.657Z,3.27
2018-01-18T22:55:12.000Z,3.77
2018-01-18T23:00:17.355Z,4.13
2018-01-18T23:05:18.710Z,3.50
2018-01-18T23:10:20.023Z,4.77
2018-01-18T23:15:21.351Z,4.60
2018-01-18T23:20:22.708Z,4.77
2018-01-18T23:25:24.033Z,4.80
2018-01-18T23:30:25.387Z,5.80
2018-01-18T23:35:26.811Z,6.13
2018-01-18T23:40:28.135Z,5.37
2018-01-18T23:45:29.660Z,5.67
2018-01-18T23:50:31.010Z,5.93
2018-01-18T23:55:32.339Z,5.60
